SWJX weather

Public forecast

Using degrees Celsius for public forecast. Weather courtesy of forecast.io.

Closest aviation weather report (METAR) to Fazenda das Perobas Airport

Closest report is Tancredo Neves International Airport, 12.8 nm (23.7 km) SE. Retrieved 2020/08/11 18:00 UTC (2 minutes ago):

SBCF 111800Z 08009KT 9999 SCT035 SCT080 24/11 Q1019

Closest aviation forecast (TAF) to Fazenda das Perobas Airport

Closest forecast is Tancredo Neves International Airport, 12.8 nm (23.7 km) SE. Retrieved 2020/08/11 18:18 UTC (0 seconds ago):

TAF SBCF 111500Z 1118/1218 16002KT CAVOK TX28/1118Z TN15/1209Z BECMG 1120/1122 09005KT 9999 SCT030 BECMG 1202/1204 16005KT CAVOK BECMG 1208/1210 14005KT 9999 SCT020 BECMG 1214/1216 04008KT SCT025 RMK PDV